Time;durP1;ratioP1;P1;durP2;ratioP2;P2;SDS_P1;SDS_P2;PMS_P1;PMS_P2;Temp;Humidity;BMP_temperature;BMP_pressure;BME280_temperature;BME280_humidity;BME280_pressure;Samples;Min_cycle;Max_cycle;Signal;HPM_P1;HPM_P2
2022/09/18 00:01:33;;;;;;;4.50;1.73;;;16.00;62.10;;;;;;5022774;28;20443;-50
2022/09/18 00:04:01;;;;;;;5.23;1.93;;;16.10;62.30;;;;;;5028953;28;20505;-51
2022/09/18 00:06:30;;;;;;;3.50;1.50;;;16.10;62.10;;;;;;5028531;28;20189;-48
2022/09/18 00:08:59;;;;;;;5.30;1.70;;;15.90;61.70;;;;;;5023756;28;20447;-48
2022/09/18 00:11:27;;;;;;;6.80;1.93;;;15.90;61.90;;;;;;5026934;28;21020;-49
2022/09/18 00:13:53;;;;;;;5.20;1.63;;;16.00;62.00;;;;;;5023521;28;20442;-53
2022/09/18 00:16:20;;;;;;;4.67;1.67;;;16.00;62.00;;;;;;5024505;28;20452;-52
2022/09/18 00:18:46;;;;;;;5.37;1.60;;;16.00;61.80;;;;;;5025327;28;20204;-52
2022/09/18 00:21:23;;;;;;;2.00;1.40;;;15.90;61.60;;;;;;5026419;28;20841;-48
2022/09/18 00:23:51;;;;;;;4.27;1.23;;;15.80;61.80;;;;;;5023458;28;20474;-51
2022/09/18 00:26:17;;;;;;;2.37;1.80;;;15.70;61.90;;;;;;5024402;28;20462;-53
2022/09/18 00:28:44;;;;;;;5.50;1.33;;;15.60;62.20;;;;;;5017657;28;20449;-53
2022/09/18 00:31:16;;;;;;;5.07;1.37;;;15.60;62.50;;;;;;5016485;28;20960;-50
2022/09/18 00:33:42;;;;;;;6.70;1.70;;;15.50;62.60;;;;;;5015811;28;21148;-49
2022/09/18 00:36:11;;;;;;;3.33;1.63;;;15.60;62.60;;;;;;5029809;28;20442;-51
2022/09/18 00:38:36;;;;;;;2.70;1.70;;;15.60;62.70;;;;;;5023359;28;20189;-50
2022/09/18 00:41:06;;;;;;;5.10;1.80;;;15.70;62.60;;;;;;5029737;28;20514;-52
2022/09/18 00:43:34;;;;;;;3.00;1.70;;;15.70;62.40;;;;;;5027242;28;20201;-53
2022/09/18 00:46:24;;;;;;;4.27;1.77;;;15.80;62.30;;;;;;5022279;28;20447;-51
2022/09/18 00:49:13;;;;;;;4.27;1.60;;;15.90;62.00;;;;;;5028985;28;20599;-48
2022/09/18 00:51:40;;;;;;;4.63;1.90;;;15.90;61.70;;;;;;5025812;28;20988;-51
2022/09/18 00:54:21;;;;;;;2.90;1.70;;;15.70;61.30;;;;;;5027967;28;20571;-50
2022/09/18 00:56:50;;;;;;;1.77;1.67;;;15.40;62.20;;;;;;5024328;28;20471;-50
2022/09/18 00:59:22;;;;;;;2.87;1.60;;;15.30;62.90;;;;;;5004607;28;20860;-48
2022/09/18 01:01:48;;;;;;;3.00;1.30;;;15.20;63.20;;;;;;5024464;28;20545;-53
2022/09/18 01:04:14;;;;;;;2.67;1.70;;;15.10;63.50;;;;;;5028235;28;20452;-50
2022/09/18 01:06:49;;;;;;;2.40;1.50;;;15.00;63.60;;;;;;5025221;28;20191;-52
2022/09/18 01:09:35;;;;;;;2.97;1.60;;;15.00;64.20;;;;;;5028783;28;20189;-50
2022/09/18 01:12:26;;;;;;;5.00;1.70;;;14.80;63.80;;;;;;5026504;28;20530;-50
2022/09/18 01:15:04;;;;;;;3.37;1.80;;;14.90;64.60;;;;;;5024608;28;20436;-51
2022/09/18 01:17:51;;;;;;;7.33;1.87;;;15.00;64.10;;;;;;5021546;28;20530;-52
2022/09/18 01:20:36;;;;;;;4.70;1.70;;;14.90;64.10;;;;;;5027153;28;21197;-52
2022/09/18 01:23:32;;;;;;;2.63;1.53;;;14.90;64.20;;;;;;5024094;28;20570;-52
2022/09/18 01:26:27;;;;;;;3.43;1.80;;;15.00;63.90;;;;;;4986618;28;20958;-52
2022/09/18 01:28:57;;;;;;;1.93;1.60;;;14.90;64.10;;;;;;5025097;28;20459;-52
2022/09/18 01:31:37;;;;;;;3.63;1.40;;;14.80;64.20;;;;;;5027454;28;20468;-53
2022/09/18 01:34:07;;;;;;;5.77;1.50;;;14.80;64.40;;;;;;5025154;28;20896;-53
2022/09/18 01:36:36;;;;;;;2.00;1.60;;;14.80;64.60;;;;;;5017022;28;20450;-51
2022/09/18 01:39:33;;;;;;;5.57;1.87;;;14.90;64.10;;;;;;5029738;28;21026;-48
2022/09/18 01:42:02;;;;;;;2.80;1.73;;;14.80;64.00;;;;;;5014350;28;20591;-49
2022/09/18 01:44:30;;;;;;;1.50;1.40;;;14.70;63.60;;;;;;5021375;28;21026;-47
2022/09/18 01:46:58;;;;;;;4.63;1.43;;;14.70;63.70;;;;;;5024240;28;20444;-49
2022/09/18 01:49:30;;;;;;;1.50;1.40;;;14.60;62.80;;;;;;5024684;28;20447;-49
2022/09/18 01:52:12;;;;;;;2.30;1.87;;;14.70;62.90;;;;;;5023194;28;20484;-51
2022/09/18 01:54:41;;;;;;;3.53;1.50;;;14.70;62.30;;;;;;5019447;28;20466;-48
2022/09/18 01:57:15;;;;;;;3.67;1.80;;;14.90;61.70;;;;;;5020545;28;20456;-49
2022/09/18 01:59:55;;;;;;;2.47;1.33;;;14.90;61.40;;;;;;5022891;28;20522;-51
2022/09/18 02:02:31;;;;;;;5.90;1.87;;;15.00;61.20;;;;;;5018833;28;20455;-48
2022/09/18 02:04:59;;;;;;;1.83;1.40;;;15.20;61.30;;;;;;5022152;28;20446;-47
2022/09/18 02:07:36;;;;;;;2.30;1.47;;;15.30;60.60;;;;;;5021462;28;20448;-47
2022/09/18 02:10:03;;;;;;;3.40;1.20;;;15.30;60.20;;;;;;5021006;28;20514;-48
2022/09/18 02:12:33;;;;;;;3.30;1.37;;;15.20;60.30;;;;;;5021970;28;20487;-47
2022/09/18 02:15:04;;;;;;;7.23;2.53;;;15.10;60.40;;;;;;5019050;28;20853;-50
2022/09/18 02:17:59;;;;;;;1.77;1.37;;;15.30;60.50;;;;;;5022483;28;20506;-48
2022/09/18 02:20:29;;;;;;;3.43;1.40;;;15.20;60.40;;;;;;5027488;28;20459;-48
2022/09/18 02:23:03;;;;;;;4.43;1.40;;;15.30;60.20;;;;;;5024420;28;20511;-47
2022/09/18 02:25:43;;;;;;;4.50;1.33;;;15.30;60.10;;;;;;5023264;28;20447;-47
2022/09/18 02:28:10;;;;;;;6.03;1.57;;;15.50;60.10;;;;;;5017991;28;20819;-48
2022/09/18 02:30:39;;;;;;;2.17;1.37;;;15.50;60.00;;;;;;5023678;28;20432;-48
2022/09/18 02:33:31;;;;;;;2.57;1.10;;;15.20;60.20;;;;;;5025187;28;20499;-49
2022/09/18 02:36:30;;;;;;;4.03;2.00;;;15.20;60.90;;;;;;5017990;28;20444;-47
2022/09/18 02:39:43;;;;;;;8.07;2.00;;;15.10;60.80;;;;;;5028291;28;20487;-47
2022/09/18 02:42:28;;;;;;;3.00;1.37;;;15.00;61.70;;;;;;4956032;28;20463;-48
2022/09/18 02:45:21;;;;;;;4.17;1.30;;;14.90;62.80;;;;;;4957657;28;20871;-47
2022/09/18 02:48:13;;;;;;;2.70;1.60;;;14.90;62.80;;;;;;5016351;28;20858;-47
2022/09/18 02:51:03;;;;;;;3.03;1.57;;;15.00;63.30;;;;;;5025815;28;20444;-47
2022/09/18 02:53:34;;;;;;;3.23;1.60;;;14.80;63.40;;;;;;5018749;28;20516;-47
2022/09/18 02:56:09;;;;;;;3.00;1.40;;;14.80;64.10;;;;;;5019271;28;20847;-47
2022/09/18 02:58:50;;;;;;;1.80;1.10;;;14.70;64.40;;;;;;5021524;28;20539;-49
2022/09/18 03:01:17;;;;;;;1.57;1.30;;;14.60;65.00;;;;;;5024291;28;20467;-47
2022/09/18 03:03:43;;;;;;;2.57;1.30;;;14.70;65.20;;;;;;5023993;28;20449;-51
2022/09/18 03:06:08;;;;;;;1.97;1.20;;;14.70;65.10;;;;;;5022286;28;20444;-47
2022/09/18 03:08:34;;;;;;;3.87;1.63;;;14.80;65.10;;;;;;5021948;28;20243;-47
2022/09/18 03:11:00;;;;;;;2.57;1.27;;;14.80;64.60;;;;;;5021154;28;20221;-50
2022/09/18 03:13:26;;;;;;;3.27;1.43;;;14.70;65.20;;;;;;5028452;28;20447;-47
2022/09/18 03:15:53;;;;;;;1.70;1.00;;;14.70;65.60;;;;;;5028049;28;20256;-50
2022/09/18 03:18:19;;;;;;;1.67;1.27;;;14.60;65.80;;;;;;5025728;28;20201;-47
2022/09/18 03:20:44;;;;;;;4.67;1.50;;;14.50;66.40;;;;;;5028028;28;20931;-47
2022/09/18 03:23:10;;;;;;;3.50;1.53;;;14.60;66.40;;;;;;5024572;28;20193;-49
2022/09/18 03:25:36;;;;;;;4.07;1.23;;;14.80;66.10;;;;;;5026981;28;20201;-50
2022/09/18 03:28:02;;;;;;;2.00;1.23;;;14.70;66.20;;;;;;5025557;28;20255;-47
2022/09/18 03:30:27;;;;;;;3.80;1.40;;;14.60;66.10;;;;;;5026623;28;20193;-47
2022/09/18 03:32:53;;;;;;;1.30;1.00;;;14.70;66.20;;;;;;5022776;28;20578;-47
2022/09/18 03:35:19;;;;;;;2.33;1.33;;;14.80;66.10;;;;;;5023794;28;20280;-47
2022/09/18 03:37:44;;;;;;;5.70;1.37;;;14.80;66.20;;;;;;5023814;28;20227;-48
2022/09/18 03:40:10;;;;;;;3.67;1.30;;;15.00;65.60;;;;;;5022393;28;20190;-48
2022/09/18 03:42:36;;;;;;;2.40;1.00;;;15.10;65.50;;;;;;5020325;28;20189;-49
2022/09/18 03:45:02;;;;;;;3.33;1.10;;;15.10;65.20;;;;;;5025545;28;20555;-48
2022/09/18 03:47:28;;;;;;;1.73;1.60;;;15.20;65.20;;;;;;5027612;28;20213;-51
2022/09/18 03:49:54;;;;;;;1.80;1.43;;;15.20;64.70;;;;;;5026640;28;20483;-48
2022/09/18 03:52:19;;;;;;;3.13;1.53;;;15.20;64.50;;;;;;5026605;28;20229;-47
2022/09/18 03:54:45;;;;;;;2.70;1.33;;;15.20;64.70;;;;;;5025103;28;20277;-47
2022/09/18 03:57:10;;;;;;;2.33;1.40;;;15.30;64.80;;;;;;5020583;28;20205;-48
2022/09/18 03:59:36;;;;;;;1.47;1.10;;;15.30;64.60;;;;;;5024982;28;20200;-51
2022/09/18 04:02:02;;;;;;;2.60;1.50;;;15.20;64.90;;;;;;5022842;28;20190;-48
2022/09/18 04:04:28;;;;;;;1.33;1.23;;;15.20;64.90;;;;;;5031465;28;20202;-48
2022/09/18 04:06:53;;;;;;;5.57;1.50;;;15.20;65.10;;;;;;5018372;28;20204;-49
2022/09/18 04:09:19;;;;;;;5.13;1.50;;;15.30;65.10;;;;;;5028419;28;20445;-47
2022/09/18 04:11:45;;;;;;;1.73;1.00;;;15.30;65.30;;;;;;5025291;28;20221;-51
2022/09/18 04:14:10;;;;;;;1.13;1.03;;;15.30;65.60;;;;;;5030016;28;20201;-48
2022/09/18 04:16:36;;;;;;;0.97;0.97;;;15.10;65.70;;;;;;5028973;28;20203;-52
2022/09/18 04:19:02;;;;;;;2.87;1.07;;;15.10;66.20;;;;;;5030629;28;20196;-48
2022/09/18 04:21:27;;;;;;;2.93;1.37;;;15.00;66.40;;;;;;5030576;28;20225;-48
2022/09/18 04:23:55;;;;;;;1.10;0.90;;;15.20;66.20;;;;;;5031537;28;20653;-47
2022/09/18 04:26:25;;;;;;;1.43;1.10;;;15.30;66.20;;;;;;5029015;28;20272;-48
2022/09/18 04:28:50;;;;;;;1.73;1.20;;;15.30;65.90;;;;;;5027539;28;22226;-49
2022/09/18 04:31:16;;;;;;;3.50;1.50;;;15.20;65.90;;;;;;5027790;28;20451;-47
2022/09/18 04:33:41;;;;;;;2.17;1.10;;;15.20;66.00;;;;;;5029365;28;20225;-47
2022/09/18 04:36:07;;;;;;;2.90;1.67;;;15.00;67.00;;;;;;5028081;28;20565;-51
2022/09/18 04:38:33;;;;;;;1.67;1.20;;;15.00;66.70;;;;;;5026993;28;20194;-48
2022/09/18 04:40:59;;;;;;;3.43;1.20;;;15.10;66.30;;;;;;5027108;28;20193;-48
2022/09/18 04:43:27;;;;;;;1.27;1.17;;;14.90;66.90;;;;;;5019142;28;20198;-49
2022/09/18 04:45:53;;;;;;;2.47;1.20;;;14.80;67.40;;;;;;5029982;28;20523;-51
2022/09/18 04:48:19;;;;;;;2.57;1.50;;;14.70;67.70;;;;;;5022182;28;20447;-48
2022/09/18 04:50:46;;;;;;;1.37;1.10;;;14.70;67.70;;;;;;5028052;28;21888;-49
2022/09/18 04:53:12;;;;;;;6.97;1.60;;;15.00;67.10;;;;;;5025424;28;20518;-49
2022/09/18 04:55:38;;;;;;;1.60;1.10;;;14.90;66.70;;;;;;5022650;28;20437;-49
2022/09/18 04:58:04;;;;;;;2.83;2.10;;;14.90;67.30;;;;;;5019522;28;20948;-49
2022/09/18 05:00:30;;;;;;;4.27;1.47;;;15.00;66.90;;;;;;5024321;28;20471;-47
2022/09/18 05:02:55;;;;;;;2.90;1.30;;;15.10;66.80;;;;;;5027395;28;20229;-50
2022/09/18 05:05:21;;;;;;;3.07;1.30;;;15.00;66.70;;;;;;5021352;28;20480;-48
2022/09/18 05:07:47;;;;;;;1.67;1.40;;;14.90;66.80;;;;;;5024719;28;20197;-47
2022/09/18 05:10:12;;;;;;;2.40;1.23;;;14.90;66.80;;;;;;5015524;28;20612;-47
2022/09/18 05:12:43;;;;;;;1.60;1.50;;;14.80;66.70;;;;;;5023989;28;20225;-48
2022/09/18 05:15:10;;;;;;;1.40;1.30;;;14.70;67.90;;;;;;5010435;28;20200;-48
2022/09/18 05:17:39;;;;;;;1.63;1.07;;;14.80;67.60;;;;;;5026337;28;20927;-47
2022/09/18 05:20:06;;;;;;;1.23;1.10;;;14.80;67.50;;;;;;5025553;28;20446;-48
2022/09/18 05:22:32;;;;;;;3.43;1.50;;;15.00;67.40;;;;;;5026829;28;20447;-46
2022/09/18 05:24:58;;;;;;;1.83;1.67;;;15.00;67.10;;;;;;5028404;28;20452;-50
2022/09/18 05:27:24;;;;;;;2.73;1.50;;;15.10;67.00;;;;;;5027244;28;20819;-47
2022/09/18 05:29:49;;;;;;;2.00;1.30;;;15.00;66.90;;;;;;5024087;28;20198;-48
2022/09/18 05:32:18;;;;;;;2.80;1.50;;;15.00;66.90;;;;;;5023849;28;20279;-51
2022/09/18 05:34:50;;;;;;;3.47;1.30;;;15.10;66.90;;;;;;5023225;28;20270;-49
2022/09/18 05:37:16;;;;;;;3.37;1.57;;;15.10;66.80;;;;;;5026948;28;20494;-49
2022/09/18 05:39:42;;;;;;;1.80;1.70;;;15.10;66.80;;;;;;5028802;28;20531;-48
2022/09/18 05:42:08;;;;;;;4.50;1.50;;;15.10;66.70;;;;;;5021384;28;20597;-53
2022/09/18 05:44:34;;;;;;;4.40;1.60;;;15.20;66.80;;;;;;5020663;28;20243;-52
2022/09/18 05:47:00;;;;;;;3.83;1.57;;;15.10;67.00;;;;;;5022389;28;20439;-50
2022/09/18 05:49:26;;;;;;;3.17;1.50;;;15.20;66.90;;;;;;5022444;28;20669;-53
2022/09/18 05:51:53;;;;;;;1.80;1.70;;;15.20;67.00;;;;;;5020141;28;20684;-49
2022/09/18 05:54:18;;;;;;;2.00;1.43;;;14.90;67.80;;;;;;5026168;28;20194;-47
2022/09/18 05:56:44;;;;;;;1.47;1.37;;;15.10;67.60;;;;;;5025617;28;20436;-47
2022/09/18 05:59:10;;;;;;;1.60;1.27;;;15.00;67.70;;;;;;5028288;28;20288;-47
2022/09/18 06:01:35;;;;;;;2.57;1.47;;;15.00;68.00;;;;;;5020375;28;20218;-52
2022/09/18 06:04:04;;;;;;;1.83;1.73;;;15.00;67.70;;;;;;5027473;28;20546;-48
2022/09/18 06:06:30;;;;;;;2.53;1.70;;;15.10;67.70;;;;;;5022720;28;20189;-48
2022/09/18 06:08:55;;;;;;;1.47;1.10;;;15.30;67.50;;;;;;5023798;28;20514;-47
2022/09/18 06:11:21;;;;;;;1.70;1.47;;;15.30;67.40;;;;;;5020248;28;20193;-52
2022/09/18 06:13:48;;;;;;;2.80;1.70;;;15.30;67.30;;;;;;5022692;28;20197;-48
2022/09/18 06:16:14;;;;;;;1.63;1.40;;;15.10;67.20;;;;;;5027617;28;20665;-47
2022/09/18 06:18:40;;;;;;;2.30;1.43;;;15.10;68.10;;;;;;5026335;28;20475;-47
2022/09/18 06:21:06;;;;;;;2.47;1.90;;;15.10;67.90;;;;;;5027527;28;20443;-48
2022/09/18 06:23:32;;;;;;;2.40;1.50;;;15.10;68.20;;;;;;5028779;28;20672;-48
2022/09/18 06:26:03;;;;;;;6.97;2.97;;;15.00;68.50;;;;;;5023374;28;20276;-47
2022/09/18 06:28:33;;;;;;;1.60;1.50;;;15.00;69.10;;;;;;5029979;28;20454;-49
2022/09/18 06:30:59;;;;;;;3.57;1.87;;;15.10;68.90;;;;;;5027897;28;21025;-51
2022/09/18 06:33:25;;;;;;;6.03;2.03;;;15.10;68.50;;;;;;5028644;28;20876;-51
2022/09/18 06:35:51;;;;;;;2.43;1.70;;;15.00;68.90;;;;;;5023800;28;20447;-48
2022/09/18 06:38:17;;;;;;;2.30;2.10;;;15.10;68.40;;;;;;5028478;28;20452;-48
2022/09/18 06:41:01;;;;;;;3.07;1.50;;;15.10;68.70;;;;;;5030587;28;20809;-51
2022/09/18 06:43:27;;;;;;;3.87;2.03;;;15.00;69.10;;;;;;5027810;28;20502;-51
2022/09/18 06:45:53;;;;;;;2.73;1.83;;;15.00;69.30;;;;;;5028920;28;20436;-51
2022/09/18 06:48:20;;;;;;;1.80;1.70;;;15.10;68.70;;;;;;5017681;28;20453;-53
2022/09/18 06:50:53;;;;;;;2.60;2.10;;;15.00;68.80;;;;;;5030340;28;20436;-49
2022/09/18 06:53:19;;;;;;;2.73;1.90;;;15.00;69.80;;;;;;5025475;28;20488;-49
2022/09/18 06:55:47;;;;;;;4.13;2.17;;;14.80;70.50;;;;;;5028392;28;20456;-49
2022/09/18 06:58:16;;;;;;;3.00;2.47;;;15.00;71.10;;;;;;5028366;28;20451;-50
2022/09/18 07:00:42;;;;;;;2.70;1.80;;;14.90;71.30;;;;;;5027603;28;20494;-49
2022/09/18 07:03:08;;;;;;;2.80;2.60;;;15.00;70.90;;;;;;5029820;28;20509;-50
2022/09/18 07:05:41;;;;;;;3.20;2.90;;;14.90;70.90;;;;;;5008498;28;20455;-48
2022/09/18 07:08:07;;;;;;;5.33;2.20;;;14.90;71.70;;;;;;5023506;28;20456;-51
2022/09/18 07:10:33;;;;;;;3.03;1.80;;;14.80;71.80;;;;;;5028499;28;20961;-48
2022/09/18 07:13:00;;;;;;;2.83;1.60;;;14.70;71.40;;;;;;5030691;28;20579;-53
2022/09/18 07:15:27;;;;;;;2.20;2.00;;;14.70;71.60;;;;;;5029988;28;20200;-50
2022/09/18 07:17:57;;;;;;;3.43;2.00;;;14.70;71.60;;;;;;5021143;28;20787;-48
2022/09/18 07:20:24;;;;;;;2.97;2.63;;;14.90;71.30;;;;;;5022292;28;20476;-53
2022/09/18 07:22:58;;;;;;;2.20;1.90;;;15.00;71.10;;;;;;5018542;28;20449;-48
2022/09/18 07:25:28;;;;;;;2.10;2.00;;;15.00;70.80;;;;;;5019010;28;20453;-49
2022/09/18 07:27:54;;;;;;;3.80;1.60;;;15.00;70.80;;;;;;5007230;28;20435;-48
2022/09/18 07:30:20;;;;;;;3.90;2.40;;;15.10;70.50;;;;;;5024293;28;20445;-49
2022/09/18 07:32:46;;;;;;;2.40;2.13;;;15.00;70.50;;;;;;5027196;28;21107;-49
2022/09/18 07:35:12;;;;;;;4.27;2.33;;;15.20;69.70;;;;;;5027936;28;20443;-51
2022/09/18 07:37:38;;;;;;;3.50;2.30;;;14.90;70.10;;;;;;5027458;28;20280;-53
2022/09/18 07:40:05;;;;;;;2.60;2.23;;;15.10;70.70;;;;;;5025551;28;20239;-48
2022/09/18 07:42:31;;;;;;;2.50;2.30;;;15.20;70.20;;;;;;5020144;28;20470;-50
2022/09/18 07:44:57;;;;;;;2.20;2.00;;;15.20;69.90;;;;;;5028823;28;20440;-48
2022/09/18 07:47:24;;;;;;;2.13;2.03;;;15.30;70.10;;;;;;5028299;28;20200;-48
2022/09/18 07:49:49;;;;;;;3.47;2.80;;;15.40;69.60;;;;;;5015769;28;20206;-49
2022/09/18 07:52:15;;;;;;;2.90;1.90;;;15.60;69.40;;;;;;5017983;28;20488;-50
2022/09/18 07:54:41;;;;;;;7.37;2.87;;;15.60;68.70;;;;;;5020164;28;20272;-47
2022/09/18 07:57:06;;;;;;;2.40;1.40;;;15.70;69.00;;;;;;5007110;28;20243;-47
2022/09/18 07:59:32;;;;;;;3.93;3.23;;;15.70;68.20;;;;;;5027452;28;20196;-50
2022/09/18 08:01:57;;;;;;;4.60;1.90;;;15.70;67.90;;;;;;5023766;28;20193;-50
2022/09/18 08:04:23;;;;;;;1.70;1.60;;;15.70;68.30;;;;;;5029528;28;20203;-47
2022/09/18 08:06:53;;;;;;;3.73;1.70;;;15.70;67.70;;;;;;5019824;28;20212;-48
2022/09/18 08:09:20;;;;;;;5.80;2.47;;;15.40;67.60;;;;;;5031949;28;20193;-48
2022/09/18 08:11:45;;;;;;;7.60;2.10;;;15.30;68.60;;;;;;5029394;28;20479;-48
2022/09/18 08:14:11;;;;;;;1.93;1.50;;;15.40;68.90;;;;;;5031284;28;20808;-48
2022/09/18 08:16:37;;;;;;;6.97;6.23;;;15.40;68.60;;;;;;5026956;28;20242;-47
2022/09/18 08:19:03;;;;;;;2.70;2.13;;;15.30;68.50;;;;;;5027902;28;20194;-47
2022/09/18 08:21:29;;;;;;;6.77;5.53;;;15.20;68.00;;;;;;5030176;28;20197;-47
2022/09/18 08:23:55;;;;;;;7.80;6.27;;;15.30;67.80;;;;;;5024148;28;20189;-47
2022/09/18 08:26:21;;;;;;;5.70;1.57;;;15.40;67.30;;;;;;5023461;28;20522;-50
2022/09/18 08:28:47;;;;;;;4.10;3.70;;;15.40;67.10;;;;;;5019337;28;20196;-50
2022/09/18 08:31:12;;;;;;;4.87;3.00;;;15.60;67.00;;;;;;5029364;28;20661;-47
2022/09/18 08:33:38;;;;;;;2.47;2.23;;;15.70;66.10;;;;;;5024705;28;20283;-50
2022/09/18 08:36:04;;;;;;;2.20;1.80;;;15.70;66.40;;;;;;5029690;28;20452;-48
2022/09/18 08:38:30;;;;;;;6.00;4.07;;;15.80;65.30;;;;;;5027983;28;20275;-49
2022/09/18 08:41:04;;;;;;;3.00;2.17;;;15.60;65.40;;;;;;5022405;28;20483;-50
2022/09/18 08:44:02;;;;;;;2.03;1.70;;;15.60;65.10;;;;;;5031435;28;20191;-47
2022/09/18 08:46:36;;;;;;;1.90;1.60;;;15.60;66.00;;;;;;5031017;28;20483;-49
2022/09/18 08:49:30;;;;;;;2.00;1.90;;;15.70;65.90;;;;;;5026389;28;20460;-49
2022/09/18 08:52:15;;;;;;;5.87;2.80;;;15.40;65.80;;;;;;5024855;28;20480;-50
2022/09/18 08:55:03;;;;;;;5.07;3.30;;;15.50;65.70;;;;;;5026987;28;20452;-49
2022/09/18 08:57:38;;;;;;;4.67;3.53;;;15.40;65.70;;;;;;5024705;28;20817;-48
2022/09/18 09:00:18;;;;;;;4.03;3.70;;;15.50;66.50;;;;;;5024784;28;20496;-51
2022/09/18 09:02:52;;;;;;;7.50;3.00;;;15.40;66.00;;;;;;5017012;28;20836;-48
2022/09/18 09:05:29;;;;;;;8.27;7.27;;;15.20;65.20;;;;;;5025029;28;20888;-49
2022/09/18 09:08:21;;;;;;;4.47;3.63;;;15.20;65.50;;;;;;5022737;28;20455;-48
2022/09/18 09:10:54;;;;;;;5.80;5.20;;;15.20;65.40;;;;;;5025266;28;20436;-48
2022/09/18 09:13:53;;;;;;;6.43;4.03;;;15.30;65.10;;;;;;5029308;28;20479;-48
2022/09/18 09:16:39;;;;;;;6.33;4.90;;;15.50;65.10;;;;;;5024840;28;20440;-47
2022/09/18 09:19:27;;;;;;;5.63;4.70;;;15.40;64.50;;;;;;5024229;28;20809;-48
2022/09/18 09:22:01;;;;;;;11.60;8.70;;;15.60;64.60;;;;;;5028457;28;20812;-48
2022/09/18 09:24:30;;;;;;;19.63;13.80;;;15.60;64.00;;;;;;5022513;28;20987;-51
2022/09/18 09:26:57;;;;;;;13.13;10.20;;;15.40;64.20;;;;;;5022090;28;20444;-47
2022/09/18 09:29:28;;;;;;;5.50;4.10;;;15.40;64.30;;;;;;5028192;28;20456;-49
2022/09/18 09:31:58;;;;;;;4.90;4.40;;;15.20;64.70;;;;;;5023187;28;20506;-49
2022/09/18 09:34:28;;;;;;;5.33;2.97;;;15.10;64.50;;;;;;5026716;28;20449;-47
2022/09/18 09:36:55;;;;;;;5.63;3.57;;;15.40;64.40;;;;;;5027162;28;20793;-52
2022/09/18 09:39:36;;;;;;;3.10;2.80;;;15.30;64.30;;;;;;5024299;28;20501;-51
2022/09/18 09:42:20;;;;;;;3.27;2.97;;;15.20;64.10;;;;;;5026807;28;21432;-52
2022/09/18 09:45:12;;;;;;;4.40;3.17;;;15.30;64.30;;;;;;5027849;28;20482;-48
2022/09/18 09:47:42;;;;;;;2.70;2.50;;;15.50;63.90;;;;;;5021311;28;20452;-48
2022/09/18 09:50:08;;;;;;;10.30;6.50;;;15.40;63.60;;;;;;5014436;28;20429;-48
2022/09/18 09:52:37;;;;;;;5.80;3.53;;;15.50;64.30;;;;;;5023047;28;20540;-48
2022/09/18 09:55:18;;;;;;;3.03;1.80;;;15.60;63.70;;;;;;5027259;28;20672;-50
2022/09/18 09:58:02;;;;;;;4.50;2.40;;;15.70;63.40;;;;;;5028589;28;20448;-48
2022/09/18 10:00:35;;;;;;;6.27;2.60;;;15.80;63.10;;;;;;5028316;28;20494;-48
2022/09/18 10:03:18;;;;;;;3.87;1.70;;;15.80;62.60;;;;;;5016105;28;20451;-49
2022/09/18 10:06:09;;;;;;;1.87;1.73;;;15.70;62.80;;;;;;5023775;28;20523;-49
2022/09/18 10:08:49;;;;;;;6.10;2.17;;;15.80;63.40;;;;;;5027689;28;20455;-52
2022/09/18 10:11:16;;;;;;;3.27;1.83;;;15.90;63.10;;;;;;5023242;28;20471;-51
2022/09/18 10:13:54;;;;;;;2.40;2.13;;;15.90;62.20;;;;;;5027276;28;20444;-50
2022/09/18 10:16:32;;;;;;;3.67;1.77;;;15.90;62.30;;;;;;5024194;28;20554;-47
2022/09/18 10:18:59;;;;;;;6.43;1.90;;;16.00;63.50;;;;;;5025855;28;20435;-49
2022/09/18 10:21:27;;;;;;;3.77;2.30;;;16.20;62.50;;;;;;5020356;28;20571;-51
2022/09/18 10:23:59;;;;;;;7.83;1.87;;;16.40;61.90;;;;;;5028896;28;21312;-47
2022/09/18 10:26:39;;;;;;;6.00;2.17;;;16.50;61.30;;;;;;5025874;28;20448;-50
2022/09/18 10:29:07;;;;;;;4.77;1.73;;;16.20;60.10;;;;;;5026277;28;20985;-52
2022/09/18 10:31:45;;;;;;;4.20;1.80;;;15.90;60.50;;;;;;5025482;28;20470;-48
2022/09/18 10:34:29;;;;;;;3.20;2.00;;;16.20;61.20;;;;;;5029430;28;20970;-48
2022/09/18 10:36:55;;;;;;;2.50;1.53;;;16.40;60.50;;;;;;5025693;28;20447;-47
2022/09/18 10:39:26;;;;;;;4.40;2.10;;;16.40;60.10;;;;;;5025613;28;20447;-47
2022/09/18 10:41:58;;;;;;;2.87;1.80;;;16.50;59.60;;;;;;5014368;28;20225;-52
2022/09/18 10:45:10;;;;;;;5.10;1.87;;;16.50;59.80;;;;;;5028056;28;20442;-50
2022/09/18 10:47:36;;;;;;;5.03;1.80;;;16.60;59.80;;;;;;4991225;28;20447;-49
2022/09/18 10:50:18;;;;;;;5.40;2.07;;;16.80;59.80;;;;;;5025721;28;20443;-52
2022/09/18 10:52:45;;;;;;;10.20;1.77;;;17.00;59.90;;;;;;5021401;28;20491;-51
2022/09/18 10:55:29;;;;;;;1.90;1.20;;;17.00;58.00;;;;;;5024416;28;20452;-48
2022/09/18 10:58:14;;;;;;;2.33;1.40;;;16.80;57.00;;;;;;5025478;28;20471;-48
2022/09/18 11:01:15;;;;;;;4.93;1.53;;;16.90;57.60;;;;;;5027489;28;20844;-50
2022/09/18 11:03:45;;;;;;;2.20;1.40;;;17.00;57.50;;;;;;5008185;28;20460;-47
2022/09/18 11:06:22;;;;;;;2.37;1.33;;;17.10;56.90;;;;;;5029861;28;20452;-48
2022/09/18 11:08:51;;;;;;;2.13;1.60;;;16.90;55.70;;;;;;5028281;28;20450;-50
2022/09/18 11:11:31;;;;;;;2.00;1.23;;;17.10;56.10;;;;;;5022815;28;20447;-53
2022/09/18 11:14:05;;;;;;;2.90;1.63;;;17.40;56.00;;;;;;5030503;28;20817;-47
2022/09/18 11:16:54;;;;;;;1.40;1.10;;;17.50;55.60;;;;;;5012728;28;20794;-49
2022/09/18 11:19:33;;;;;;;3.87;1.23;;;17.70;54.50;;;;;;5026530;28;20446;-50
2022/09/18 11:22:04;;;;;;;3.00;1.20;;;17.60;53.50;;;;;;5024843;28;20832;-47
2022/09/18 11:24:33;;;;;;;2.53;1.80;;;17.60;53.20;;;;;;5031812;28;20497;-50
2022/09/18 11:27:20;;;;;;;3.40;1.37;;;17.80;53.00;;;;;;5028580;28;20447;-48
2022/09/18 11:29:46;;;;;;;2.30;1.00;;;17.50;51.50;;;;;;5029388;28;20504;-50
2022/09/18 11:32:24;;;;;;;1.73;1.00;;;17.60;53.00;;;;;;5031253;28;20519;-48
2022/09/18 11:35:00;;;;;;;3.87;1.40;;;17.70;52.10;;;;;;5033145;28;20655;-47
2022/09/18 11:37:35;;;;;;;3.53;1.13;;;17.90;52.00;;;;;;5029942;28;20522;-51
2022/09/18 11:40:07;;;;;;;0.97;0.83;;;17.60;49.60;;;;;;5031058;28;20586;-48
2022/09/18 11:42:43;;;;;;;3.03;1.33;;;17.50;49.30;;;;;;5033639;28;20447;-47
2022/09/18 11:45:33;;;;;;;2.57;1.13;;;17.60;50.00;;;;;;5027477;28;20443;-48
2022/09/18 11:48:19;;;;;;;4.50;1.00;;;17.60;50.00;;;;;;5020941;28;20447;-49
2022/09/18 11:50:46;;;;;;;3.33;1.20;;;17.70;49.50;;;;;;5027483;28;20541;-52
2022/09/18 11:53:23;;;;;;;2.30;1.20;;;17.80;49.70;;;;;;5028335;28;22800;-48
2022/09/18 11:55:48;;;;;;;2.40;1.47;;;17.90;49.80;;;;;;5029700;28;20451;-49
2022/09/18 11:58:54;;;;;;;4.47;1.50;;;18.10;50.00;;;;;;5031051;28;20444;-49
2022/09/18 12:01:44;;;;;;;3.57;1.10;;;18.50;49.60;;;;;;4956868;28;20202;-50
2022/09/18 12:04:20;;;;;;;2.63;1.07;;;18.50;47.60;;;;;;4956950;28;20482;-48
2022/09/18 12:07:02;;;;;;;2.80;1.27;;;18.30;47.60;;;;;;5006510;28;20482;-52
2022/09/18 12:09:45;;;;;;;1.50;1.20;;;18.40;48.00;;;;;;5029089;28;20459;-48
2022/09/18 12:12:31;;;;;;;3.13;1.10;;;18.60;48.00;;;;;;5028671;28;20495;-51
2022/09/18 12:15:15;;;;;;;2.73;1.30;;;18.70;47.10;;;;;;5029694;28;20444;-46
2022/09/18 12:17:55;;;;;;;4.40;0.83;;;18.40;47.60;;;;;;5031487;28;20502;-48
2022/09/18 12:20:23;;;;;;;2.27;1.07;;;18.40;46.40;;;;;;5029902;28;20510;-47
2022/09/18 12:22:58;;;;;;;3.80;1.20;;;18.20;46.40;;;;;;5028881;28;20436;-47
2022/09/18 12:25:41;;;;;;;0.93;0.83;;;18.40;46.90;;;;;;5023537;28;20462;-47
2022/09/18 12:28:19;;;;;;;3.63;1.20;;;18.40;45.20;;;;;;5028552;28;20543;-48
2022/09/18 12:30:55;;;;;;;4.13;1.10;;;18.40;45.30;;;;;;5024446;28;20499;-47
2022/09/18 12:33:37;;;;;;;1.03;0.90;;;18.50;44.90;;;;;;5027599;28;20487;-47
2022/09/18 12:36:22;;;;;;;2.20;0.87;;;18.70;45.50;;;;;;5029789;28;20475;-48
2022/09/18 12:39:20;;;;;;;1.30;0.90;;;18.90;44.90;;;;;;5020556;28;20447;-49
2022/09/18 12:41:55;;;;;;;1.27;1.10;;;18.90;45.30;;;;;;5025463;28;20969;-48
2022/09/18 12:44:42;;;;;;;1.57;0.87;;;18.80;45.60;;;;;;5029569;28;20478;-50
2022/09/18 12:47:33;;;;;;;1.40;1.00;;;18.90;46.00;;;;;;5027759;28;20848;-48
2022/09/18 12:50:21;;;;;;;1.97;1.03;;;18.60;45.30;;;;;;5030701;28;20436;-48
2022/09/18 12:53:20;;;;;;;1.33;1.00;;;18.60;45.30;;;;;;5019788;28;20837;-50
2022/09/18 12:56:18;;;;;;;1.17;1.00;;;18.40;44.40;;;;;;5023078;28;20448;-48
2022/09/18 12:58:57;;;;;;;1.50;1.07;;;18.40;45.10;;;;;;5029590;28;20448;-47
2022/09/18 13:01:37;;;;;;;3.60;1.30;;;18.50;45.40;;;;;;5021215;28;20452;-47
2022/09/18 13:04:20;;;;;;;1.00;0.90;;;18.50;45.60;;;;;;5028242;28;20468;-49
2022/09/18 13:07:02;;;;;;;1.47;1.00;;;18.50;45.60;;;;;;5024693;28;20450;-48
2022/09/18 13:09:34;;;;;;;1.37;1.00;;;18.50;45.70;;;;;;5022988;28;20477;-47
2022/09/18 13:12:05;;;;;;;1.10;1.00;;;18.50;45.00;;;;;;5024237;28;20518;-47
2022/09/18 13:14:36;;;;;;;3.93;1.00;;;18.70;45.00;;;;;;5022702;28;20527;-50